createdAt,value
2023-10-04T00:01:51.583Z,68.16
2023-10-04T00:04:21.340Z,68.27
2023-10-04T00:06:49.358Z,68.94
2023-10-04T00:09:17.443Z,69.08
2023-10-04T00:11:45.718Z,69.00
2023-10-04T00:14:13.707Z,68.03
2023-10-04T00:16:42.461Z,68.68
2023-10-04T00:19:10.773Z,68.61
2023-10-04T00:21:40.082Z,67.76
2023-10-04T00:24:11.215Z,68.85
2023-10-04T00:26:39.584Z,68.76
2023-10-04T00:29:07.799Z,68.35
2023-10-04T00:31:37.685Z,68.05
2023-10-04T00:34:09.723Z,68.18
2023-10-04T00:36:38.515Z,68.11
2023-10-04T00:39:09.146Z,68.17
2023-10-04T00:41:37.533Z,68.17
2023-10-04T00:44:10.914Z,68.41
2023-10-04T00:46:42.802Z,68.05
2023-10-04T00:49:11.104Z,68.54
2023-10-04T00:51:41.147Z,68.03
2023-10-04T00:54:12.963Z,68.09
2023-10-04T00:56:42.509Z,68.30
2023-10-04T00:59:12.389Z,67.99
2023-10-04T01:01:42.329Z,68.05
2023-10-04T01:04:11.854Z,68.14
2023-10-04T01:06:40.300Z,67.86
2023-10-04T01:09:10.396Z,67.99
2023-10-04T01:11:47.178Z,68.12
2023-10-04T01:14:20.431Z,68.91
2023-10-04T01:16:50.862Z,68.30
2023-10-04T01:19:18.994Z,68.27
2023-10-04T01:21:47.030Z,68.01
2023-10-04T01:24:17.891Z,68.03
2023-10-04T01:26:46.218Z,68.33
2023-10-04T01:29:16.772Z,68.18
2023-10-04T01:31:45.037Z,68.27
2023-10-04T01:34:14.594Z,68.27
2023-10-04T01:36:43.262Z,68.64
2023-10-04T01:39:19.735Z,68.50
2023-10-04T01:41:50.277Z,69.16
2023-10-04T01:44:18.569Z,69.10
2023-10-04T01:46:46.578Z,68.57
2023-10-04T01:49:14.618Z,68.83
2023-10-04T01:51:44.467Z,69.34
2023-10-04T01:54:16.904Z,68.55
2023-10-04T01:56:45.278Z,68.22
2023-10-04T01:59:15.595Z,68.63
2023-10-04T02:01:45.373Z,69.56
2023-10-04T02:04:15.115Z,69.03
2023-10-04T02:06:43.180Z,69.48
2023-10-04T02:09:13.215Z,68.91
2023-10-04T02:11:42.875Z,68.74
2023-10-04T02:14:12.298Z,69.35
2023-10-04T02:16:43.033Z,68.91
2023-10-04T02:19:13.113Z,68.33
2023-10-04T02:21:41.400Z,69.88
2023-10-04T02:24:10.966Z,69.36
2023-10-04T02:26:39.109Z,69.08
2023-10-04T02:29:10.569Z,69.07
2023-10-04T02:31:38.694Z,69.02
2023-10-04T02:34:08.166Z,68.70
2023-10-04T02:36:38.650Z,69.07
2023-10-04T02:39:12.409Z,68.92
2023-10-04T02:41:42.942Z,68.52
2023-10-04T02:44:11.086Z,69.53
2023-10-04T02:46:43.032Z,69.00
2023-10-04T02:49:12.854Z,69.32
2023-10-04T02:51:42.475Z,69.80
2023-10-04T02:54:10.647Z,69.99
2023-10-04T02:56:46.756Z,69.66
2023-10-04T02:59:18.061Z,69.78
2023-10-04T03:01:47.910Z,69.81
2023-10-04T03:04:19.731Z,69.35
2023-10-04T03:06:48.601Z,69.06
2023-10-04T03:09:18.055Z,69.50
2023-10-04T03:11:46.637Z,69.57
2023-10-04T03:14:16.841Z,69.78
2023-10-04T03:16:45.113Z,69.68
2023-10-04T03:19:14.137Z,70.04
2023-10-04T03:21:47.328Z,69.34
2023-10-04T03:24:19.720Z,70.40
2023-10-04T03:26:48.539Z,69.71
2023-10-04T03:29:19.201Z,69.98
2023-10-04T03:31:49.704Z,70.05
2023-10-04T03:34:18.565Z,69.93
2023-10-04T03:36:47.989Z,69.79
2023-10-04T03:39:17.491Z,69.74
2023-10-04T03:41:48.767Z,69.88
2023-10-04T03:44:17.846Z,69.81
2023-10-04T03:46:46.127Z,69.74
2023-10-04T03:49:15.624Z,70.12
2023-10-04T03:51:44.464Z,69.73
2023-10-04T03:54:14.256Z,69.77
2023-10-04T03:56:43.167Z,70.37
2023-10-04T03:59:12.327Z,69.94
2023-10-04T04:01:40.675Z,69.89
2023-10-04T04:04:09.551Z,70.42
2023-10-04T04:06:37.951Z,70.13
2023-10-04T04:09:09.917Z,69.87
2023-10-04T04:11:40.794Z,70.04
2023-10-04T04:14:09.687Z,70.43
2023-10-04T04:16:38.725Z,69.06
2023-10-04T04:19:08.300Z,70.16
2023-10-04T04:21:37.158Z,70.93
2023-10-04T04:24:07.769Z,69.76
2023-10-04T04:26:36.745Z,70.24
2023-10-04T04:29:10.778Z,69.54
2023-10-04T04:31:41.754Z,70.50
2023-10-04T04:34:14.306Z,70.11
2023-10-04T04:36:43.578Z,70.51
2023-10-04T04:39:17.834Z,69.51
2023-10-04T04:41:47.150Z,70.10
2023-10-04T04:44:21.915Z,69.92
2023-10-04T04:46:50.650Z,70.36
2023-10-04T04:49:20.424Z,69.95
2023-10-04T04:51:48.876Z,70.00
2023-10-04T04:54:19.555Z,69.46
2023-10-04T04:56:48.029Z,70.12
2023-10-04T04:59:22.203Z,70.20
2023-10-04T05:01:52.413Z,69.71
2023-10-04T05:04:23.898Z,69.50
2023-10-04T05:06:52.532Z,69.42
2023-10-04T05:09:20.560Z,69.87
2023-10-04T05:11:48.536Z,69.57
2023-10-04T05:14:18.109Z,69.64
2023-10-04T05:16:46.224Z,69.43
2023-10-04T05:19:14.757Z,69.00
2023-10-04T05:21:43.118Z,69.64
2023-10-04T05:24:11.581Z,69.54
2023-10-04T05:26:39.758Z,69.23
2023-10-04T05:29:08.932Z,69.37
2023-10-04T05:31:38.911Z,69.30
2023-10-04T05:34:09.000Z,69.38
2023-10-04T05:36:40.927Z,69.02
2023-10-04T05:39:12.672Z,69.11
2023-10-04T05:41:41.407Z,68.53
2023-10-04T05:44:10.086Z,69.92
2023-10-04T05:46:45.482Z,69.07
2023-10-04T05:49:14.020Z,69.44
2023-10-04T05:51:42.198Z,68.50
2023-10-04T05:54:11.822Z,68.64
2023-10-04T05:56:41.078Z,69.58
2023-10-04T05:59:11.938Z,68.67
2023-10-04T06:01:43.020Z,68.70
2023-10-04T06:04:12.353Z,68.48
2023-10-04T06:06:45.769Z,69.34
2023-10-04T06:09:27.723Z,68.73
2023-10-04T06:11:56.095Z,68.95
2023-10-04T06:14:26.933Z,68.64
2023-10-04T06:16:57.289Z,69.62
2023-10-04T06:19:30.742Z,68.86
2023-10-04T06:22:00.379Z,68.39
2023-10-04T06:24:28.964Z,68.24
2023-10-04T06:26:57.323Z,68.35
2023-10-04T06:29:25.354Z,68.05
2023-10-04T06:31:53.984Z,68.54
2023-10-04T06:34:23.367Z,68.01
2023-10-04T06:36:51.399Z,67.72
2023-10-04T06:39:19.777Z,67.51
2023-10-04T06:41:47.938Z,67.66
2023-10-04T06:44:15.904Z,67.11
2023-10-04T06:46:44.244Z,67.17
2023-10-04T06:49:12.255Z,67.47
2023-10-04T06:51:41.717Z,67.46
2023-10-04T06:54:10.549Z,67.41
2023-10-04T06:56:38.689Z,67.47
2023-10-04T06:59:06.896Z,67.25
2023-10-04T07:01:35.202Z,67.37
2023-10-04T07:04:03.443Z,67.32
2023-10-04T07:06:34.001Z,67.35
2023-10-04T07:09:08.809Z,66.83
2023-10-04T07:11:36.854Z,66.78
2023-10-04T07:14:05.645Z,66.58
2023-10-04T07:16:34.298Z,66.27
2023-10-04T07:19:04.549Z,66.41
2023-10-04T07:21:33.060Z,66.32
2023-10-04T07:24:01.098Z,66.26
2023-10-04T07:26:35.302Z,66.15
2023-10-04T07:29:04.542Z,66.05
2023-10-04T07:31:36.271Z,66.08
2023-10-04T07:34:05.187Z,65.93
2023-10-04T07:36:33.512Z,66.15
2023-10-04T07:39:01.527Z,66.32
2023-10-04T07:41:31.198Z,66.15
2023-10-04T07:43:59.186Z,66.07
2023-10-04T07:46:27.433Z,66.06
2023-10-04T07:48:55.695Z,65.74
2023-10-04T07:51:23.720Z,66.04
2023-10-04T07:53:54.067Z,66.15
2023-10-04T07:56:22.405Z,65.64
2023-10-04T07:58:51.761Z,65.86
2023-10-04T08:01:19.780Z,65.76
2023-10-04T08:03:48.833Z,65.64
2023-10-04T08:06:17.052Z,66.04
2023-10-04T08:08:46.437Z,65.90
2023-10-04T08:11:15.220Z,66.01
2023-10-04T08:13:43.242Z,65.95
2023-10-04T08:16:12.611Z,65.26
2023-10-04T08:18:41.064Z,65.24
2023-10-04T08:21:09.128Z,65.61
2023-10-04T08:23:37.142Z,65.36
2023-10-04T08:26:15.061Z,64.80
2023-10-04T08:28:43.146Z,64.78
2023-10-04T08:31:14.662Z,64.53
2023-10-04T08:33:45.107Z,63.96
2023-10-04T08:36:18.809Z,63.57
2023-10-04T08:38:47.178Z,63.57
2023-10-04T08:41:17.554Z,63.86
2023-10-04T08:43:46.121Z,63.51
2023-10-04T08:46:18.721Z,63.60
2023-10-04T08:48:54.522Z,62.92
2023-10-04T08:51:32.479Z,62.53
2023-10-04T08:54:11.243Z,62.23
2023-10-04T08:56:49.118Z,62.96
2023-10-04T08:59:19.828Z,62.46
2023-10-04T09:01:52.340Z,63.05
2023-10-04T09:04:21.940Z,62.71
2023-10-04T09:06:50.364Z,62.26
2023-10-04T09:09:19.587Z,62.30
2023-10-04T09:11:47.933Z,62.29
2023-10-04T09:14:16.317Z,62.40
2023-10-04T09:16:44.473Z,61.80
2023-10-04T09:19:18.539Z,61.40
2023-10-04T09:21:47.674Z,62.11
2023-10-04T09:24:18.017Z,61.47
2023-10-04T09:26:53.984Z,60.63
2023-10-04T09:29:31.456Z,60.00
2023-10-04T09:32:00.205Z,59.93
2023-10-04T09:34:30.432Z,60.21
2023-10-04T09:36:59.701Z,60.11
2023-10-04T09:39:32.351Z,60.18
2023-10-04T09:42:04.963Z,60.65
2023-10-04T09:44:37.259Z,60.12
2023-10-04T09:47:06.846Z,59.72
2023-10-04T09:49:38.818Z,59.48
2023-10-04T09:52:09.132Z,59.44
2023-10-04T09:54:37.853Z,59.20
2023-10-04T09:57:08.365Z,59.42
2023-10-04T09:59:38.218Z,59.38
2023-10-04T10:02:10.374Z,60.39
2023-10-04T10:04:44.614Z,59.81
2023-10-04T10:07:17.360Z,58.74
2023-10-04T10:10:00.854Z,59.38
2023-10-04T10:12:32.454Z,59.13
2023-10-04T10:15:02.236Z,59.62
2023-10-04T10:17:31.998Z,59.40
2023-10-04T10:20:02.975Z,59.76
2023-10-04T10:22:31.075Z,58.44
2023-10-04T10:25:16.247Z,57.24
2023-10-04T10:27:45.953Z,57.34
2023-10-04T10:30:14.667Z,59.10
2023-10-04T10:32:52.293Z,58.51
2023-10-04T10:35:58.334Z,59.01
2023-10-04T10:38:31.993Z,56.86
2023-10-04T10:41:00.359Z,58.09
2023-10-04T10:43:28.413Z,57.90
2023-10-04T10:45:57.489Z,58.52
2023-10-04T10:48:34.728Z,59.58
2023-10-04T10:51:03.292Z,58.86
2023-10-04T10:53:33.121Z,58.31
2023-10-04T10:56:01.317Z,57.41
2023-10-04T10:58:29.492Z,59.10
2023-10-04T11:00:58.396Z,58.95
2023-10-04T11:03:29.676Z,57.68
2023-10-04T11:06:01.022Z,56.80
2023-10-04T11:08:30.427Z,56.68
2023-10-04T11:11:01.482Z,55.71
2023-10-04T11:13:34.978Z,55.38
2023-10-04T11:16:07.315Z,56.19
2023-10-04T11:18:36.688Z,56.94
2023-10-04T11:21:05.665Z,56.77
2023-10-04T11:23:35.315Z,56.71
2023-10-04T11:26:08.450Z,54.70
2023-10-04T11:28:37.136Z,55.40
2023-10-04T11:31:05.872Z,53.70
2023-10-04T11:33:51.731Z,56.12
2023-10-04T11:36:21.266Z,54.13
2023-10-04T11:38:51.021Z,55.63
2023-10-04T11:41:21.424Z,53.70
2023-10-04T11:43:52.657Z,52.60
2023-10-04T11:46:22.413Z,53.72
2023-10-04T11:48:50.529Z,52.92
2023-10-04T11:51:29.866Z,52.31
2023-10-04T11:53:59.909Z,53.23
2023-10-04T11:56:29.482Z,54.98
2023-10-04T11:58:58.167Z,53.05
2023-10-04T12:01:26.761Z,54.32
2023-10-04T12:03:56.296Z,52.52
2023-10-04T12:06:25.429Z,52.91
2023-10-04T12:08:54.424Z,52.78
2023-10-04T12:11:26.207Z,53.91
2023-10-04T12:13:56.582Z,53.62
2023-10-04T12:16:25.987Z,54.67
2023-10-04T12:18:54.219Z,54.15
2023-10-04T12:21:22.340Z,54.55
2023-10-04T12:23:50.746Z,54.21
2023-10-04T12:26:22.204Z,54.59
2023-10-04T12:28:50.760Z,53.03
2023-10-04T12:31:20.856Z,52.57
2023-10-04T12:33:50.177Z,53.96
2023-10-04T12:36:18.516Z,53.10
2023-10-04T12:38:47.612Z,54.00
2023-10-04T12:41:16.098Z,53.54
2023-10-04T12:43:45.484Z,54.25
2023-10-04T12:46:13.637Z,53.54
2023-10-04T12:48:43.040Z,54.09
2023-10-04T12:51:11.298Z,53.59
2023-10-04T12:53:39.370Z,51.80
2023-10-04T12:56:08.457Z,53.29
2023-10-04T12:58:36.713Z,53.44
2023-10-04T13:01:06.787Z,53.22
2023-10-04T13:03:34.932Z,53.36
2023-10-04T13:06:07.332Z,51.73
2023-10-04T13:08:35.800Z,51.90
2023-10-04T13:11:06.079Z,52.30
2023-10-04T13:13:34.553Z,51.92
2023-10-04T13:16:04.321Z,52.70
2023-10-04T13:18:33.923Z,53.07
2023-10-04T13:21:02.074Z,52.45
2023-10-04T13:23:33.191Z,52.53
2023-10-04T13:26:01.435Z,51.80
2023-10-04T13:28:30.098Z,51.76
2023-10-04T13:30:58.179Z,49.95
2023-10-04T13:33:27.313Z,52.25
2023-10-04T13:35:59.052Z,52.70
2023-10-04T13:38:27.421Z,52.38
2023-10-04T13:40:56.869Z,52.57
2023-10-04T13:43:25.848Z,50.61
2023-10-04T13:45:54.648Z,51.85
2023-10-04T13:48:23.984Z,52.45
2023-10-04T13:50:53.217Z,52.86
2023-10-04T13:53:23.987Z,51.50
2023-10-04T13:55:52.129Z,52.68
2023-10-04T13:58:24.837Z,52.51
2023-10-04T14:00:57.435Z,52.34
2023-10-04T14:03:26.944Z,52.81
2023-10-04T14:06:01.541Z,52.98
2023-10-04T14:08:29.991Z,52.08
2023-10-04T14:10:59.428Z,52.70
2023-10-04T14:13:29.246Z,53.08
2023-10-04T14:15:57.752Z,51.37
2023-10-04T14:18:26.342Z,52.39
2023-10-04T14:20:58.220Z,53.23
2023-10-04T14:23:27.125Z,52.32
2023-10-04T14:25:57.427Z,52.71
2023-10-04T14:28:26.524Z,52.56
2023-10-04T14:30:58.489Z,52.79
2023-10-04T14:33:27.858Z,53.07
2023-10-04T14:35:56.254Z,53.17
2023-10-04T14:38:24.340Z,53.10
2023-10-04T14:40:59.510Z,51.78
2023-10-04T14:43:32.688Z,53.11
2023-10-04T14:46:04.989Z,53.11
2023-10-04T14:48:34.103Z,52.76
2023-10-04T14:51:12.476Z,53.09
2023-10-04T14:53:41.851Z,53.37
2023-10-04T14:56:10.621Z,52.09
2023-10-04T14:58:38.611Z,52.93
2023-10-04T15:01:13.899Z,53.20
2023-10-04T15:03:42.418Z,53.20
2023-10-04T15:06:15.655Z,53.82
2023-10-04T15:08:46.003Z,53.56
2023-10-04T15:11:14.884Z,53.89
2023-10-04T15:13:43.702Z,53.85
2023-10-04T15:16:15.840Z,53.91
2023-10-04T15:18:44.285Z,53.25
2023-10-04T15:21:12.268Z,53.90
2023-10-04T15:23:40.978Z,54.30
2023-10-04T15:26:11.454Z,54.30
2023-10-04T15:28:45.700Z,54.46
2023-10-04T15:31:18.754Z,54.25
2023-10-04T15:33:48.261Z,54.33
2023-10-04T15:36:17.991Z,54.80
2023-10-04T15:38:47.086Z,54.39
2023-10-04T15:41:15.369Z,54.46
2023-10-04T15:43:43.829Z,54.26
2023-10-04T15:46:14.923Z,54.31
2023-10-04T15:48:44.711Z,54.49
2023-10-04T15:51:13.039Z,54.34
2023-10-04T15:53:41.134Z,54.40
2023-10-04T15:56:09.517Z,54.49
2023-10-04T15:58:37.933Z,54.49
2023-10-04T16:01:06.107Z,54.54
2023-10-04T16:03:34.558Z,54.55
2023-10-04T16:06:04.431Z,54.68
2023-10-04T16:08:32.634Z,54.95
2023-10-04T16:11:01.049Z,54.87
2023-10-04T16:13:29.154Z,55.03
2023-10-04T16:15:57.615Z,55.06
2023-10-04T16:18:29.898Z,55.23
2023-10-04T16:20:58.214Z,55.47
2023-10-04T16:23:29.627Z,55.51
2023-10-04T16:25:57.791Z,55.51
2023-10-04T16:28:26.196Z,55.43
2023-10-04T16:30:54.582Z,55.41
2023-10-04T16:33:22.793Z,55.51
2023-10-04T16:35:50.783Z,55.59
2023-10-04T16:38:19.045Z,55.68
2023-10-04T16:40:48.433Z,55.66
2023-10-04T16:43:17.700Z,55.86
2023-10-04T16:45:52.216Z,55.82
2023-10-04T16:48:20.452Z,55.97
2023-10-04T16:50:48.921Z,56.17
2023-10-04T16:53:16.963Z,56.17
2023-10-04T16:55:45.163Z,56.26
2023-10-04T16:58:14.765Z,56.35
2023-10-04T17:00:44.325Z,56.53
2023-10-04T17:03:12.636Z,56.47
2023-10-04T17:05:41.000Z,56.56
2023-10-04T17:08:09.053Z,56.86
2023-10-04T17:10:37.385Z,56.79
2023-10-04T17:13:05.952Z,56.89
2023-10-04T17:15:35.432Z,56.93
2023-10-04T17:18:03.735Z,57.09
2023-10-04T17:20:32.029Z,57.19
2023-10-04T17:23:00.286Z,57.31
2023-10-04T17:25:30.701Z,57.10
2023-10-04T17:27:59.716Z,57.22
2023-10-04T17:30:30.397Z,57.58
2023-10-04T17:33:00.593Z,57.67
2023-10-04T17:35:29.194Z,57.87
2023-10-04T17:37:57.320Z,57.61
2023-10-04T17:40:26.910Z,57.61
2023-10-04T17:42:55.441Z,57.56
2023-10-04T17:45:23.642Z,57.52
2023-10-04T17:47:51.975Z,57.64
2023-10-04T17:50:21.722Z,57.61
2023-10-04T17:52:50.372Z,57.53
2023-10-04T17:55:18.903Z,57.72
2023-10-04T17:57:47.954Z,57.64
2023-10-04T18:00:16.913Z,57.65
2023-10-04T18:02:48.202Z,57.87
2023-10-04T18:05:16.812Z,57.94
2023-10-04T18:07:46.770Z,57.54
2023-10-04T18:10:15.316Z,57.89
2023-10-04T18:12:44.278Z,57.98
2023-10-04T18:15:18.127Z,57.84
2023-10-04T18:17:47.527Z,57.97
2023-10-04T18:20:16.626Z,57.95
2023-10-04T18:22:46.972Z,57.87
2023-10-04T18:25:15.978Z,57.94
2023-10-04T18:27:45.720Z,57.99
2023-10-04T18:30:15.348Z,58.09
2023-10-04T18:32:43.898Z,57.83
2023-10-04T18:35:12.560Z,57.91
2023-10-04T18:37:43.449Z,57.87
2023-10-04T18:40:14.414Z,57.69
2023-10-04T18:42:45.178Z,58.04
2023-10-04T18:45:13.849Z,58.16
2023-10-04T18:47:44.546Z,58.07
2023-10-04T18:50:19.123Z,58.14
2023-10-04T18:52:56.925Z,58.26
2023-10-04T18:55:29.771Z,58.00
2023-10-04T18:57:58.636Z,58.57
2023-10-04T19:00:26.994Z,58.36
2023-10-04T19:02:57.550Z,58.62
2023-10-04T19:05:27.098Z,58.91
2023-10-04T19:08:03.409Z,58.81
2023-10-04T19:10:33.202Z,58.75
2023-10-04T19:13:01.472Z,58.60
2023-10-04T19:15:30.720Z,58.73
2023-10-04T19:18:01.356Z,59.29
2023-10-04T19:20:30.568Z,59.28
2023-10-04T19:23:05.556Z,59.14
2023-10-04T19:25:58.220Z,59.16
2023-10-04T19:28:29.383Z,60.10
2023-10-04T19:31:00.140Z,59.10
2023-10-04T19:33:31.067Z,59.24
2023-10-04T19:36:00.187Z,59.31
2023-10-04T19:38:31.444Z,58.98
2023-10-04T19:41:05.276Z,58.96
2023-10-04T19:43:38.318Z,59.03
2023-10-04T19:46:13.553Z,59.22
2023-10-04T19:48:45.301Z,59.34
2023-10-04T19:51:13.492Z,59.08
2023-10-04T19:53:42.844Z,59.44
2023-10-04T19:56:17.568Z,59.08
2023-10-04T19:58:49.027Z,59.10
2023-10-04T20:01:18.874Z,59.12
2023-10-04T20:03:53.430Z,59.08
2023-10-04T20:06:38.287Z,58.86
2023-10-04T20:09:26.788Z,58.99
2023-10-04T20:11:57.176Z,59.17
2023-10-04T20:14:29.636Z,59.63
2023-10-04T20:16:58.980Z,59.39
2023-10-04T20:19:29.778Z,59.27
2023-10-04T20:22:00.993Z,59.43
2023-10-04T20:24:29.733Z,59.72
2023-10-04T20:27:00.763Z,59.58
2023-10-04T20:29:28.951Z,59.64
2023-10-04T20:31:57.705Z,59.85
2023-10-04T20:34:29.018Z,59.90
2023-10-04T20:36:58.833Z,60.13
2023-10-04T20:39:29.297Z,59.95
2023-10-04T20:42:06.276Z,60.25
2023-10-04T20:44:36.659Z,60.92
2023-10-04T20:47:05.474Z,60.17
2023-10-04T20:49:34.342Z,60.26
2023-10-04T20:52:02.543Z,60.18
2023-10-04T20:54:32.757Z,60.04
2023-10-04T20:57:02.341Z,60.04
2023-10-04T20:59:30.551Z,60.22
2023-10-04T21:01:58.687Z,60.43
2023-10-04T21:04:27.011Z,60.54
2023-10-04T21:06:55.461Z,60.59
2023-10-04T21:09:23.749Z,60.54
2023-10-04T21:11:54.172Z,60.46
2023-10-04T21:14:24.738Z,60.67
2023-10-04T21:16:52.885Z,60.90
2023-10-04T21:19:21.174Z,60.74
2023-10-04T21:21:49.735Z,61.03
2023-10-04T21:24:19.415Z,60.94
2023-10-04T21:26:47.956Z,61.21
2023-10-04T21:29:16.270Z,60.91
2023-10-04T21:31:45.651Z,60.67
2023-10-04T21:34:33.319Z,61.41
2023-10-04T21:37:24.708Z,61.36
2023-10-04T21:40:13.110Z,61.35
2023-10-04T21:42:44.878Z,61.27
2023-10-04T21:45:14.841Z,61.08
2023-10-04T21:47:50.268Z,61.55
2023-10-04T21:50:20.995Z,61.05
2023-10-04T21:52:49.500Z,61.15
2023-10-04T21:55:18.394Z,61.45
2023-10-04T21:57:46.796Z,61.33
2023-10-04T22:00:23.632Z,61.35
2023-10-04T22:02:55.749Z,61.18
2023-10-04T22:05:25.053Z,62.20
2023-10-04T22:07:56.694Z,61.42
2023-10-04T22:10:25.696Z,61.32
2023-10-04T22:12:57.095Z,61.71
2023-10-04T22:15:25.904Z,61.65
2023-10-04T22:17:55.695Z,62.06
2023-10-04T22:20:24.657Z,61.81
2023-10-04T22:22:52.891Z,61.37
2023-10-04T22:25:23.222Z,61.49
2023-10-04T22:27:51.559Z,61.31
2023-10-04T22:30:20.416Z,61.45
2023-10-04T22:32:50.976Z,61.32
2023-10-04T22:35:24.580Z,61.42
2023-10-04T22:37:54.142Z,61.50
2023-10-04T22:40:25.564Z,61.42
2023-10-04T22:42:56.255Z,61.78
2023-10-04T22:45:24.932Z,61.63
2023-10-04T22:47:53.237Z,62.13
2023-10-04T22:50:23.185Z,61.98
2023-10-04T22:52:53.621Z,61.98
2023-10-04T22:55:22.583Z,62.37
2023-10-04T22:57:51.276Z,62.19
2023-10-04T23:00:25.101Z,62.54
2023-10-04T23:02:56.648Z,62.70
2023-10-04T23:05:27.439Z,62.37
2023-10-04T23:07:57.166Z,62.48
2023-10-04T23:10:25.462Z,62.19
2023-10-04T23:12:54.911Z,62.33
2023-10-04T23:15:29.265Z,62.43
2023-10-04T23:17:57.963Z,62.54
2023-10-04T23:20:39.048Z,63.21
2023-10-04T23:23:12.564Z,62.86
2023-10-04T23:25:44.379Z,62.81
2023-10-04T23:28:13.524Z,62.55
2023-10-04T23:30:43.761Z,62.57
2023-10-04T23:33:16.235Z,62.74
2023-10-04T23:35:48.080Z,63.32
2023-10-04T23:38:39.862Z,63.12
2023-10-04T23:41:25.690Z,63.89
2023-10-04T23:43:54.790Z,63.63
2023-10-04T23:46:31.908Z,63.56
2023-10-04T23:49:10.091Z,63.47
2023-10-04T23:51:42.645Z,63.29
2023-10-04T23:54:13.341Z,63.25
2023-10-04T23:57:01.683Z,63.37
2023-10-04T23:59:29.943Z,63.34
